UAL265 KDEN-KRSW
Flight info
| Callsign | UAL265 |
|---|---|
| Flight time | 2h 55m |
| Altitude | 35000 |
| Route | EPKEE7 DUUZE ICT/N0463F370 RZC KM27K MGMRY ACORI BULZI Q81 NICKI PLYER TYNEE4 |
| Aircraft | B738/M-SDE2E3FGHIRWXY/LB1 |
Departure
| Time | 2026-05-05 18:38 |
|---|---|
| Airport | Denver International Airport (KDEN) |
Arrival
| Time | 2026-05-05 21:33 |
|---|---|
| Airport | Southwest Florida International Airport (KRSW) |
| Time | Latitude | Longitude | Altitude | Speed | Heading |
|---|---|---|---|---|---|
| 2026-05-05 18:06 | 39.85336 | -104.67929 | 5379 ft | 0 kts | 0° |
| 2026-05-05 18:30 | 39.85323 | -104.67929 | 5381 ft | 4 kts | 358° |
| 2026-05-05 18:31 | 39.85297 | -104.67924 | 5382 ft | 4 kts | 334° |
| 2026-05-05 18:31 | 39.85283 | -104.67906 | 5382 ft | 2 kts | 271° |
| 2026-05-05 18:31 | 39.85283 | -104.67904 | 5381 ft | 0 kts | 270° |
| 2026-05-05 18:34 | 39.85283 | -104.67915 | 5382 ft | 4 kts | 268° |
| 2026-05-05 18:34 | 39.85281 | -104.67954 | 5379 ft | 9 kts | 268° |
| 2026-05-05 18:34 | 39.85282 | -104.68111 | 5382 ft | 17 kts | 272° |
| 2026-05-05 18:35 | 39.85310 | -104.68278 | 5381 ft | 21 kts | 267° |
| 2026-05-05 18:35 | 39.85228 | -104.68405 | 5377 ft | 18 kts | 192° |
| 2026-05-05 18:35 | 39.85206 | -104.68561 | 5375 ft | 23 kts | 269° |
| 2026-05-05 18:35 | 39.85201 | -104.68793 | 5360 ft | 27 kts | 268° |
| 2026-05-05 18:36 | 39.85195 | -104.68958 | 5355 ft | 27 kts | 264° |
| 2026-05-05 18:36 | 39.85196 | -104.69193 | 5345 ft | 25 kts | 271° |
| 2026-05-05 18:36 | 39.85202 | -104.69409 | 5340 ft | 21 kts | 270° |
| 2026-05-05 18:36 | 39.85201 | -104.69592 | 5340 ft | 19 kts | 269° |
| 2026-05-05 18:37 | 39.85224 | -104.69659 | 5338 ft | 0 kts | 358° |
| 2026-05-05 18:37 | 39.85227 | -104.69660 | 5337 ft | 3 kts | 358° |
| 2026-05-05 18:37 | 39.85417 | -104.69658 | 5339 ft | 59 kts | 1° |
| 2026-05-05 18:37 | 39.86037 | -104.69639 | 5339 ft | 112 kts | 21° |
| 2026-05-05 18:38 | 39.86959 | -104.69633 | 5340 ft | 160 kts | 359° |
| 2026-05-05 18:38 | 39.88165 | -104.69644 | 5828 ft | 180 kts | 3° |
| 2026-05-05 18:38 | 39.89411 | -104.69625 | 6900 ft | 176 kts | 5° |
| 2026-05-05 18:38 | 39.90631 | -104.69231 | 7442 ft | 191 kts | 37° |
| 2026-05-05 18:39 | 39.91428 | -104.67815 | 7605 ft | 204 kts | 79° |
| 2026-05-05 18:39 | 39.91280 | -104.65953 | 7784 ft | 220 kts | 113° |
| 2026-05-05 18:39 | 39.90566 | -104.64098 | 8006 ft | 239 kts | 118° |
| 2026-05-05 18:39 | 39.89759 | -104.62087 | 8194 ft | 261 kts | 118° |
| 2026-05-05 18:40 | 39.88909 | -104.59940 | 8771 ft | 272 kts | 118° |
| 2026-05-05 18:40 | 39.88040 | -104.57715 | 9505 ft | 278 kts | 118° |
| 2026-05-05 18:40 | 39.87167 | -104.55457 | 9946 ft | 278 kts | 119° |
| 2026-05-05 18:40 | 39.86300 | -104.53199 | 10005 ft | 281 kts | 119° |
| 2026-05-05 18:41 | 39.85426 | -104.50914 | 10016 ft | 281 kts | 119° |
| 2026-05-05 18:41 | 39.84572 | -104.48675 | 10016 ft | 278 kts | 119° |
| 2026-05-05 18:41 | 39.83715 | -104.46425 | 10016 ft | 277 kts | 118° |
| 2026-05-05 18:41 | 39.82860 | -104.44185 | 10052 ft | 278 kts | 119° |
| 2026-05-05 18:42 | 39.81967 | -104.41851 | 10178 ft | 299 kts | 119° |
| 2026-05-05 18:42 | 39.81006 | -104.39334 | 10349 ft | 323 kts | 118° |
| 2026-05-05 18:42 | 39.80018 | -104.36591 | 10506 ft | 346 kts | 117° |
| 2026-05-05 18:42 | 39.79008 | -104.33674 | 10841 ft | 360 kts | 116° |
| 2026-05-05 18:43 | 39.77976 | -104.30660 | 11369 ft | 369 kts | 116° |
| 2026-05-05 18:43 | 39.76915 | -104.27569 | 11885 ft | 379 kts | 116° |
| 2026-05-05 18:43 | 39.75826 | -104.24417 | 12466 ft | 386 kts | 116° |
| 2026-05-05 18:43 | 39.74713 | -104.21212 | 13068 ft | 393 kts | 116° |
| 2026-05-05 18:44 | 39.73571 | -104.17938 | 13546 ft | 403 kts | 116° |
| 2026-05-05 18:44 | 39.72399 | -104.14585 | 14050 ft | 411 kts | 116° |
| 2026-05-05 18:44 | 39.71205 | -104.11194 | 14710 ft | 413 kts | 117° |
| 2026-05-05 18:44 | 39.70003 | -104.07801 | 15395 ft | 414 kts | 117° |
| 2026-05-05 18:45 | 39.68794 | -104.04395 | 16043 ft | 416 kts | 117° |
| 2026-05-05 18:45 | 39.67581 | -104.00974 | 16605 ft | 420 kts | 117° |
| 2026-05-05 18:45 | 39.66352 | -103.97514 | 17171 ft | 423 kts | 117° |
| 2026-05-05 18:45 | 39.65105 | -103.94043 | 17757 ft | 426 kts | 118° |
| 2026-05-05 18:46 | 39.63735 | -103.90630 | 18334 ft | 428 kts | 121° |
| 2026-05-05 18:46 | 39.62302 | -103.87231 | 18822 ft | 430 kts | 121° |
| 2026-05-05 18:46 | 39.60866 | -103.83802 | 19314 ft | 433 kts | 121° |
| 2026-05-05 18:46 | 39.59438 | -103.80348 | 19785 ft | 437 kts | 120° |
| 2026-05-05 18:47 | 39.58157 | -103.76753 | 20223 ft | 443 kts | 114° |
| 2026-05-05 18:47 | 39.57068 | -103.72997 | 20656 ft | 447 kts | 111° |
| 2026-05-05 18:47 | 39.56062 | -103.69220 | 21081 ft | 451 kts | 111° |
| 2026-05-05 18:47 | 39.55048 | -103.65360 | 21508 ft | 454 kts | 111° |
| 2026-05-05 18:48 | 39.54011 | -103.61479 | 21930 ft | 458 kts | 111° |
| 2026-05-05 18:48 | 39.52942 | -103.57575 | 22331 ft | 461 kts | 112° |
| 2026-05-05 18:48 | 39.51847 | -103.53654 | 22740 ft | 465 kts | 112° |
| 2026-05-05 18:48 | 39.50732 | -103.49714 | 23135 ft | 468 kts | 112° |
| 2026-05-05 18:49 | 39.49602 | -103.45746 | 23476 ft | 472 kts | 112° |
| 2026-05-05 18:49 | 39.48456 | -103.41738 | 23776 ft | 476 kts | 112° |
| 2026-05-05 18:49 | 39.47303 | -103.37712 | 24072 ft | 479 kts | 113° |
| 2026-05-05 18:49 | 39.46133 | -103.33630 | 24209 ft | 487 kts | 114° |
| 2026-05-05 18:50 | 39.44946 | -103.29493 | 24476 ft | 491 kts | 114° |
| 2026-05-05 18:50 | 39.43757 | -103.25346 | 24845 ft | 492 kts | 114° |
| 2026-05-05 18:50 | 39.42563 | -103.21188 | 25167 ft | 494 kts | 114° |
| 2026-05-05 18:50 | 39.41360 | -103.17006 | 25454 ft | 498 kts | 114° |
| 2026-05-05 18:51 | 39.40148 | -103.12801 | 25730 ft | 501 kts | 115° |
| 2026-05-05 18:51 | 39.38927 | -103.08571 | 25975 ft | 505 kts | 115° |
| 2026-05-05 18:51 | 39.37695 | -103.04307 | 26200 ft | 508 kts | 115° |
| 2026-05-05 18:51 | 39.36452 | -103.00012 | 26493 ft | 511 kts | 115° |
| 2026-05-05 18:52 | 39.35204 | -102.95711 | 26775 ft | 513 kts | 116° |
| 2026-05-05 18:52 | 39.33838 | -102.91468 | 27028 ft | 512 kts | 121° |
| 2026-05-05 18:52 | 39.32282 | -102.87394 | 27265 ft | 512 kts | 123° |
| 2026-05-05 18:52 | 39.30613 | -102.83317 | 27459 ft | 515 kts | 125° |
| 2026-05-05 18:53 | 39.28915 | -102.79226 | 27589 ft | 520 kts | 125° |
| 2026-05-05 18:53 | 39.27217 | -102.75083 | 27820 ft | 523 kts | 124° |
| 2026-05-05 18:53 | 39.25538 | -102.70904 | 28116 ft | 524 kts | 124° |
| 2026-05-05 18:53 | 39.23880 | -102.66712 | 28492 ft | 524 kts | 124° |
| 2026-05-05 18:54 | 39.22233 | -102.62521 | 28869 ft | 524 kts | 124° |
| 2026-05-05 18:54 | 39.20588 | -102.58332 | 29200 ft | 524 kts | 124° |
| 2026-05-05 18:54 | 39.18935 | -102.54138 | 29507 ft | 525 kts | 125° |
| 2026-05-05 18:54 | 39.17276 | -102.49941 | 29846 ft | 525 kts | 125° |
| 2026-05-05 18:55 | 39.15615 | -102.45748 | 30183 ft | 525 kts | 126° |
| 2026-05-05 18:55 | 39.13953 | -102.41561 | 30433 ft | 525 kts | 126° |
| 2026-05-05 18:55 | 39.12283 | -102.37373 | 30643 ft | 527 kts | 127° |
| 2026-05-05 18:55 | 39.10594 | -102.33166 | 30851 ft | 529 kts | 127° |
| 2026-05-05 18:56 | 39.08901 | -102.28957 | 31163 ft | 529 kts | 127° |
| 2026-05-05 18:56 | 39.07214 | -102.24762 | 31518 ft | 527 kts | 127° |
| 2026-05-05 18:56 | 39.05526 | -102.20569 | 31830 ft | 527 kts | 127° |
| 2026-05-05 18:56 | 39.03840 | -102.16385 | 32079 ft | 528 kts | 127° |
| 2026-05-05 18:57 | 39.02147 | -102.12194 | 32322 ft | 529 kts | 127° |
| 2026-05-05 18:57 | 39.00474 | -102.08053 | 32607 ft | 529 kts | 128° |
| 2026-05-05 18:57 | 38.98778 | -102.03859 | 32930 ft | 528 kts | 128° |
| 2026-05-05 18:57 | 38.97080 | -101.99667 | 33168 ft | 530 kts | 128° |
| 2026-05-05 18:58 | 38.95375 | -101.95468 | 33311 ft | 532 kts | 128° |
| 2026-05-05 18:58 | 38.93662 | -101.91252 | 33599 ft | 532 kts | 128° |
| 2026-05-05 18:58 | 38.91953 | -101.87045 | 33939 ft | 531 kts | 128° |
| 2026-05-05 18:58 | 38.90243 | -101.82842 | 34214 ft | 530 kts | 128° |
| 2026-05-05 18:59 | 38.88533 | -101.78646 | 34448 ft | 530 kts | 128° |
| 2026-05-05 18:59 | 38.86826 | -101.74465 | 34715 ft | 528 kts | 128° |
| 2026-05-05 18:59 | 38.85129 | -101.70295 | 34995 ft | 528 kts | 127° |
| 2026-05-05 18:59 | 38.83663 | -101.65892 | 34974 ft | 543 kts | 118° |
| 2026-05-05 19:00 | 38.81366 | -101.56591 | 35002 ft | 548 kts | 114° |
| 2026-05-05 19:00 | 38.79258 | -101.47243 | 35000 ft | 543 kts | 115° |
| 2026-05-05 19:01 | 38.77063 | -101.38025 | 35000 ft | 538 kts | 116° |
| 2026-05-05 19:01 | 38.74804 | -101.28979 | 35005 ft | 536 kts | 116° |
| 2026-05-05 19:02 | 38.72485 | -101.19857 | 35017 ft | 542 kts | 116° |
| 2026-05-05 19:02 | 38.70133 | -101.10616 | 35008 ft | 548 kts | 116° |
| 2026-05-05 19:03 | 38.67779 | -101.01331 | 35007 ft | 549 kts | 116° |
| 2026-05-05 19:03 | 38.65412 | -100.92014 | 35027 ft | 550 kts | 116° |
| 2026-05-05 19:04 | 38.63042 | -100.82725 | 35033 ft | 549 kts | 116° |
| 2026-05-05 19:04 | 38.60669 | -100.73470 | 35015 ft | 546 kts | 116° |
| 2026-05-05 19:05 | 38.58296 | -100.64251 | 35014 ft | 545 kts | 116° |
| 2026-05-05 19:05 | 38.55927 | -100.55085 | 35010 ft | 543 kts | 117° |
| 2026-05-05 19:06 | 38.53551 | -100.45929 | 34996 ft | 542 kts | 117° |
| 2026-05-05 19:06 | 38.51190 | -100.36859 | 35003 ft | 541 kts | 117° |
| 2026-05-05 19:07 | 38.48810 | -100.27755 | 35009 ft | 541 kts | 117° |
| 2026-05-05 19:07 | 38.46421 | -100.18648 | 34994 ft | 541 kts | 117° |
| 2026-05-05 19:08 | 38.44025 | -100.09542 | 34971 ft | 541 kts | 117° |
| 2026-05-05 19:08 | 38.41622 | -100.00447 | 34985 ft | 542 kts | 117° |
| 2026-05-05 19:09 | 38.39206 | -99.91335 | 34983 ft | 543 kts | 117° |
| 2026-05-05 19:09 | 38.36779 | -99.82209 | 34985 ft | 544 kts | 117° |
| 2026-05-05 19:10 | 38.34343 | -99.73088 | 34985 ft | 545 kts | 117° |
| 2026-05-05 19:10 | 38.31894 | -99.63946 | 34977 ft | 546 kts | 117° |
| 2026-05-05 19:11 | 38.29431 | -99.54785 | 34977 ft | 547 kts | 117° |
| 2026-05-05 19:11 | 38.26976 | -99.45684 | 34936 ft | 547 kts | 117° |
| 2026-05-05 19:12 | 38.24499 | -99.36534 | 34970 ft | 547 kts | 117° |
| 2026-05-05 19:12 | 38.22015 | -99.27395 | 34987 ft | 547 kts | 117° |
| 2026-05-05 19:13 | 38.19524 | -99.18260 | 34991 ft | 546 kts | 117° |
| 2026-05-05 19:13 | 38.17025 | -99.09132 | 34992 ft | 546 kts | 117° |
| 2026-05-05 19:14 | 38.14522 | -99.00018 | 34986 ft | 546 kts | 117° |
| 2026-05-05 19:14 | 38.12014 | -98.90916 | 34982 ft | 546 kts | 117° |
| 2026-05-05 19:15 | 38.09502 | -98.81833 | 34974 ft | 545 kts | 117° |
| 2026-05-05 19:15 | 38.06981 | -98.72749 | 34975 ft | 545 kts | 117° |
| 2026-05-05 19:16 | 38.04456 | -98.63685 | 34944 ft | 545 kts | 117° |
| 2026-05-05 19:16 | 38.01937 | -98.54670 | 34952 ft | 545 kts | 117° |
| 2026-05-05 19:17 | 37.99400 | -98.45622 | 34951 ft | 545 kts | 117° |
| 2026-05-05 19:17 | 37.96852 | -98.36568 | 34952 ft | 546 kts | 117° |
| 2026-05-05 19:18 | 37.94292 | -98.27503 | 34934 ft | 546 kts | 117° |
| 2026-05-05 19:18 | 37.91725 | -98.18440 | 34937 ft | 547 kts | 117° |
| 2026-05-05 19:19 | 37.89149 | -98.09377 | 34933 ft | 546 kts | 117° |
| 2026-05-05 19:19 | 37.86570 | -98.00332 | 34935 ft | 546 kts | 117° |
| 2026-05-05 19:20 | 37.83982 | -97.91287 | 34942 ft | 547 kts | 117° |
| 2026-05-05 19:20 | 37.81383 | -97.82238 | 34948 ft | 547 kts | 117° |
| 2026-05-05 19:21 | 37.78778 | -97.73193 | 34938 ft | 548 kts | 117° |
| 2026-05-05 19:21 | 37.76163 | -97.64139 | 34938 ft | 548 kts | 117° |
| 2026-05-05 19:22 | 37.73392 | -97.55262 | 34944 ft | 541 kts | 124° |
| 2026-05-05 19:22 | 37.69941 | -97.46830 | 35040 ft | 542 kts | 127° |
| 2026-05-05 19:23 | 37.68140 | -97.42637 | 35258 ft | 542 kts | 127° |
| 2026-05-05 19:23 | 37.66354 | -97.38463 | 35533 ft | 540 kts | 127° |
| 2026-05-05 19:23 | 37.64582 | -97.34278 | 35761 ft | 540 kts | 127° |
| 2026-05-05 19:23 | 37.62822 | -97.30082 | 35952 ft | 541 kts | 127° |
| 2026-05-05 19:24 | 37.61075 | -97.25882 | 36178 ft | 541 kts | 126° |
| 2026-05-05 19:24 | 37.59334 | -97.21678 | 36463 ft | 540 kts | 126° |
| 2026-05-05 19:24 | 37.57601 | -97.17491 | 36707 ft | 538 kts | 127° |
| 2026-05-05 19:24 | 37.55871 | -97.13314 | 36924 ft | 538 kts | 127° |
| 2026-05-05 19:25 | 37.52377 | -97.04919 | 36948 ft | 542 kts | 127° |
| 2026-05-05 19:25 | 37.48901 | -96.96587 | 36930 ft | 539 kts | 127° |
| 2026-05-05 19:26 | 37.45982 | -96.89604 | 36936 ft | 537 kts | 127° |
| 2026-05-05 19:26 | 37.42500 | -96.81306 | 36940 ft | 536 kts | 127° |
| 2026-05-05 19:27 | 37.39015 | -96.73024 | 36949 ft | 536 kts | 127° |
| 2026-05-05 19:27 | 37.35520 | -96.64741 | 36939 ft | 537 kts | 127° |
| 2026-05-05 19:28 | 37.32012 | -96.56448 | 36935 ft | 538 kts | 127° |
| 2026-05-05 19:28 | 37.28488 | -96.48134 | 36895 ft | 540 kts | 127° |
| 2026-05-05 19:29 | 37.24949 | -96.39805 | 36917 ft | 542 kts | 127° |
| 2026-05-05 19:29 | 37.21410 | -96.31501 | 36911 ft | 544 kts | 127° |
| 2026-05-05 19:30 | 37.17831 | -96.23124 | 36911 ft | 547 kts | 127° |
| 2026-05-05 19:30 | 37.14228 | -96.14712 | 36910 ft | 549 kts | 127° |
| 2026-05-05 19:31 | 37.10606 | -96.06274 | 36916 ft | 550 kts | 127° |
| 2026-05-05 19:31 | 37.06973 | -95.97833 | 36862 ft | 550 kts | 127° |
| 2026-05-05 19:32 | 37.03342 | -95.89417 | 36899 ft | 549 kts | 127° |
| 2026-05-05 19:32 | 36.99708 | -95.81018 | 36906 ft | 549 kts | 127° |
| 2026-05-05 19:33 | 36.96070 | -95.72633 | 36893 ft | 548 kts | 127° |
| 2026-05-05 19:33 | 36.92435 | -95.64276 | 36881 ft | 547 kts | 127° |
| 2026-05-05 19:34 | 36.88795 | -95.55930 | 36887 ft | 546 kts | 127° |
| 2026-05-05 19:35 | 36.83339 | -95.43459 | 36869 ft | 544 kts | 127° |
| 2026-05-05 19:35 | 36.79704 | -95.35177 | 36845 ft | 544 kts | 127° |
| 2026-05-05 19:36 | 36.76081 | -95.26945 | 36846 ft | 544 kts | 127° |
| 2026-05-05 19:36 | 36.72434 | -95.18679 | 36850 ft | 545 kts | 127° |
| 2026-05-05 19:37 | 36.68773 | -95.10402 | 36852 ft | 545 kts | 127° |
| 2026-05-05 19:37 | 36.65098 | -95.02114 | 36847 ft | 546 kts | 127° |
| 2026-05-05 19:38 | 36.61420 | -94.93836 | 36849 ft | 546 kts | 127° |
| 2026-05-05 19:38 | 36.57728 | -94.85552 | 36868 ft | 548 kts | 127° |
| 2026-05-05 19:39 | 36.54025 | -94.77261 | 36805 ft | 549 kts | 127° |
| 2026-05-05 19:39 | 36.50307 | -94.68960 | 36793 ft | 550 kts | 127° |
| 2026-05-05 19:40 | 36.46576 | -94.60649 | 36800 ft | 551 kts | 127° |
| 2026-05-05 19:40 | 36.42831 | -94.52327 | 36791 ft | 552 kts | 127° |
| 2026-05-05 19:41 | 36.39083 | -94.44016 | 36799 ft | 552 kts | 127° |
| 2026-05-05 19:41 | 36.35324 | -94.35706 | 36821 ft | 552 kts | 127° |
| 2026-05-05 19:42 | 36.31548 | -94.27379 | 36808 ft | 553 kts | 127° |
| 2026-05-05 19:42 | 36.27775 | -94.19074 | 36822 ft | 553 kts | 127° |
| 2026-05-05 19:43 | 36.24013 | -94.10758 | 36802 ft | 554 kts | 125° |
| 2026-05-05 19:43 | 36.20515 | -94.02220 | 36803 ft | 557 kts | 122° |
| 2026-05-05 19:44 | 36.17143 | -93.93577 | 36774 ft | 557 kts | 122° |
| 2026-05-05 19:44 | 36.13756 | -93.84970 | 36791 ft | 557 kts | 123° |
| 2026-05-05 19:45 | 36.10317 | -93.76377 | 36778 ft | 556 kts | 122° |
| 2026-05-05 19:45 | 36.06891 | -93.67882 | 36775 ft | 556 kts | 122° |
| 2026-05-05 19:46 | 36.03435 | -93.59336 | 36781 ft | 556 kts | 122° |
| 2026-05-05 19:46 | 35.99975 | -93.50794 | 36783 ft | 556 kts | 122° |
| 2026-05-05 19:47 | 35.96506 | -93.42248 | 36778 ft | 556 kts | 123° |
| 2026-05-05 19:47 | 35.93036 | -93.33719 | 36790 ft | 556 kts | 123° |
| 2026-05-05 19:48 | 35.89566 | -93.25215 | 36791 ft | 556 kts | 123° |
| 2026-05-05 19:48 | 35.86081 | -93.16697 | 36791 ft | 556 kts | 123° |
| 2026-05-05 19:49 | 35.82590 | -93.08186 | 36784 ft | 555 kts | 123° |
| 2026-05-05 19:49 | 35.79102 | -92.99702 | 36805 ft | 555 kts | 123° |
| 2026-05-05 19:50 | 35.75625 | -92.91269 | 36797 ft | 556 kts | 123° |
| 2026-05-05 19:50 | 35.72121 | -92.82792 | 36802 ft | 556 kts | 123° |
| 2026-05-05 19:51 | 35.68612 | -92.74324 | 36810 ft | 555 kts | 123° |
| 2026-05-05 19:51 | 35.65098 | -92.65867 | 36819 ft | 556 kts | 122° |
| 2026-05-05 19:52 | 35.61571 | -92.57401 | 36827 ft | 557 kts | 122° |
| 2026-05-05 19:52 | 35.58032 | -92.48928 | 36809 ft | 558 kts | 122° |
| 2026-05-05 19:53 | 35.54482 | -92.40448 | 36809 ft | 558 kts | 123° |
| 2026-05-05 19:53 | 35.50929 | -92.31981 | 36817 ft | 558 kts | 123° |
| 2026-05-05 19:54 | 35.47363 | -92.23509 | 36775 ft | 558 kts | 122° |
| 2026-05-05 19:54 | 35.43801 | -92.15064 | 36798 ft | 557 kts | 122° |
| 2026-05-05 19:55 | 35.40231 | -92.06624 | 36805 ft | 557 kts | 122° |
| 2026-05-05 19:55 | 35.36652 | -91.98184 | 36805 ft | 557 kts | 122° |
| 2026-05-05 19:56 | 35.33098 | -91.89825 | 36816 ft | 557 kts | 122° |
| 2026-05-05 19:56 | 35.29515 | -91.81418 | 36820 ft | 557 kts | 122° |
| 2026-05-05 19:57 | 35.25924 | -91.73012 | 36822 ft | 557 kts | 122° |
| 2026-05-05 19:57 | 35.22324 | -91.64607 | 36794 ft | 556 kts | 122° |
| 2026-05-05 19:58 | 35.18730 | -91.56236 | 36815 ft | 556 kts | 122° |
| 2026-05-05 19:58 | 35.15128 | -91.47868 | 36821 ft | 556 kts | 122° |
| 2026-05-05 19:59 | 35.11540 | -91.39554 | 36809 ft | 556 kts | 122° |
| 2026-05-05 19:59 | 35.07922 | -91.31191 | 36816 ft | 557 kts | 122° |
| 2026-05-05 20:00 | 35.04296 | -91.22829 | 36814 ft | 557 kts | 122° |
| 2026-05-05 20:00 | 35.00664 | -91.14474 | 36816 ft | 557 kts | 122° |
| 2026-05-05 20:01 | 34.97030 | -91.06135 | 36813 ft | 557 kts | 122° |
| 2026-05-05 20:01 | 34.93386 | -90.97794 | 36825 ft | 557 kts | 122° |
| 2026-05-05 20:02 | 34.89740 | -90.89468 | 36835 ft | 557 kts | 122° |
| 2026-05-05 20:02 | 34.86086 | -90.81143 | 36833 ft | 557 kts | 122° |
| 2026-05-05 20:03 | 34.82425 | -90.72825 | 36840 ft | 557 kts | 122° |
| 2026-05-05 20:03 | 34.78783 | -90.64569 | 36845 ft | 558 kts | 122° |
| 2026-05-05 20:04 | 34.75110 | -90.56264 | 36856 ft | 558 kts | 122° |
| 2026-05-05 20:04 | 34.71428 | -90.47958 | 36856 ft | 557 kts | 122° |
| 2026-05-05 20:05 | 34.67747 | -90.39672 | 36853 ft | 557 kts | 122° |
| 2026-05-05 20:05 | 34.64057 | -90.31387 | 36863 ft | 557 kts | 122° |
| 2026-05-05 20:06 | 34.60363 | -90.23115 | 36860 ft | 557 kts | 122° |
| 2026-05-05 20:06 | 34.56666 | -90.14851 | 36871 ft | 557 kts | 122° |
| 2026-05-05 20:07 | 34.52963 | -90.06594 | 36869 ft | 558 kts | 122° |
| 2026-05-05 20:07 | 34.49184 | -89.98388 | 36890 ft | 555 kts | 127° |
| 2026-05-05 20:08 | 34.44783 | -89.90745 | 36882 ft | 552 kts | 131° |
| 2026-05-05 20:08 | 34.40214 | -89.83263 | 36889 ft | 552 kts | 131° |
| 2026-05-05 20:09 | 34.35676 | -89.75755 | 36894 ft | 553 kts | 130° |
| 2026-05-05 20:09 | 34.31183 | -89.68206 | 36911 ft | 554 kts | 130° |
| 2026-05-05 20:10 | 34.26721 | -89.60678 | 36913 ft | 554 kts | 130° |
| 2026-05-05 20:10 | 34.22224 | -89.53109 | 36918 ft | 554 kts | 130° |
| 2026-05-05 20:11 | 34.17723 | -89.45562 | 36912 ft | 553 kts | 130° |
| 2026-05-05 20:11 | 34.13217 | -89.38025 | 36917 ft | 554 kts | 130° |
| 2026-05-05 20:12 | 34.08703 | -89.30494 | 36912 ft | 554 kts | 130° |
| 2026-05-05 20:12 | 34.04182 | -89.22964 | 36934 ft | 554 kts | 130° |
| 2026-05-05 20:13 | 34.00423 | -89.16716 | 36930 ft | 554 kts | 130° |
| 2026-05-05 20:13 | 33.95890 | -89.09194 | 36925 ft | 554 kts | 130° |
| 2026-05-05 20:14 | 33.91353 | -89.01681 | 36947 ft | 554 kts | 130° |
| 2026-05-05 20:14 | 33.86818 | -88.94188 | 36930 ft | 554 kts | 130° |
| 2026-05-05 20:15 | 33.82268 | -88.86685 | 36940 ft | 554 kts | 130° |
| 2026-05-05 20:15 | 33.77721 | -88.79203 | 36947 ft | 554 kts | 130° |
| 2026-05-05 20:16 | 33.73172 | -88.71731 | 36933 ft | 554 kts | 130° |
| 2026-05-05 20:16 | 33.68615 | -88.64263 | 36927 ft | 554 kts | 130° |
| 2026-05-05 20:17 | 33.64056 | -88.56807 | 36913 ft | 553 kts | 130° |
| 2026-05-05 20:17 | 33.59491 | -88.49356 | 36915 ft | 553 kts | 130° |
| 2026-05-05 20:18 | 33.54963 | -88.41981 | 36920 ft | 553 kts | 130° |
| 2026-05-05 20:18 | 33.50394 | -88.34554 | 36922 ft | 553 kts | 130° |
| 2026-05-05 20:19 | 33.45820 | -88.27133 | 36928 ft | 553 kts | 130° |
| 2026-05-05 20:19 | 33.41239 | -88.19716 | 36938 ft | 554 kts | 130° |
| 2026-05-05 20:20 | 33.36644 | -88.12293 | 36934 ft | 554 kts | 130° |
| 2026-05-05 20:20 | 33.32047 | -88.04879 | 36954 ft | 555 kts | 130° |
| 2026-05-05 20:21 | 33.27474 | -87.97519 | 36949 ft | 555 kts | 130° |
| 2026-05-05 20:21 | 33.22872 | -87.90129 | 36957 ft | 554 kts | 130° |
| 2026-05-05 20:22 | 33.18259 | -87.82734 | 36954 ft | 554 kts | 130° |
| 2026-05-05 20:22 | 33.13649 | -87.75361 | 36934 ft | 554 kts | 130° |
| 2026-05-05 20:23 | 33.09038 | -87.67998 | 36968 ft | 554 kts | 130° |
| 2026-05-05 20:23 | 33.04415 | -87.60634 | 36960 ft | 554 kts | 130° |
| 2026-05-05 20:24 | 32.99799 | -87.53293 | 36985 ft | 554 kts | 130° |
| 2026-05-05 20:24 | 32.95172 | -87.45949 | 36982 ft | 554 kts | 130° |
| 2026-05-05 20:25 | 32.90545 | -87.38621 | 36986 ft | 554 kts | 130° |
| 2026-05-05 20:25 | 32.85907 | -87.31290 | 36958 ft | 554 kts | 130° |
| 2026-05-05 20:26 | 32.81303 | -87.24026 | 36977 ft | 554 kts | 130° |
| 2026-05-05 20:26 | 32.76654 | -87.16706 | 36974 ft | 554 kts | 130° |
| 2026-05-05 20:27 | 32.72005 | -87.09400 | 36964 ft | 555 kts | 130° |
| 2026-05-05 20:27 | 32.67348 | -87.02097 | 36955 ft | 555 kts | 130° |
| 2026-05-05 20:28 | 32.62686 | -86.94799 | 36950 ft | 555 kts | 130° |
| 2026-05-05 20:28 | 32.58013 | -86.87498 | 36890 ft | 556 kts | 130° |
| 2026-05-05 20:29 | 32.53333 | -86.80198 | 36929 ft | 555 kts | 130° |
| 2026-05-05 20:29 | 32.48654 | -86.72917 | 36955 ft | 555 kts | 130° |
| 2026-05-05 20:30 | 32.44007 | -86.65698 | 36949 ft | 555 kts | 130° |
| 2026-05-05 20:30 | 32.39321 | -86.58433 | 36981 ft | 555 kts | 130° |
| 2026-05-05 20:31 | 32.34633 | -86.51178 | 36986 ft | 555 kts | 130° |
| 2026-05-05 20:31 | 32.29941 | -86.43930 | 37009 ft | 555 kts | 130° |
| 2026-05-05 20:32 | 32.25251 | -86.36697 | 37006 ft | 554 kts | 130° |
| 2026-05-05 20:32 | 32.20294 | -86.29785 | 36992 ft | 548 kts | 142° |
| 2026-05-05 20:33 | 32.14564 | -86.23913 | 37006 ft | 545 kts | 145° |
| 2026-05-05 20:33 | 32.08819 | -86.18148 | 37025 ft | 546 kts | 144° |
| 2026-05-05 20:34 | 32.03077 | -86.12280 | 37026 ft | 547 kts | 143° |
| 2026-05-05 20:34 | 31.97360 | -86.06383 | 37027 ft | 546 kts | 143° |
| 2026-05-05 20:35 | 31.91621 | -86.00475 | 37020 ft | 547 kts | 143° |
| 2026-05-05 20:35 | 31.85884 | -85.94589 | 37033 ft | 547 kts | 143° |
| 2026-05-05 20:36 | 31.80137 | -85.88704 | 37024 ft | 548 kts | 143° |
| 2026-05-05 20:36 | 31.74552 | -85.82549 | 37021 ft | 552 kts | 136° |
| 2026-05-05 20:37 | 31.69421 | -85.75826 | 37021 ft | 553 kts | 134° |
| 2026-05-05 20:37 | 31.64352 | -85.69032 | 37014 ft | 553 kts | 134° |
| 2026-05-05 20:38 | 31.59229 | -85.62294 | 37011 ft | 553 kts | 135° |
| 2026-05-05 20:38 | 31.54065 | -85.55604 | 37021 ft | 553 kts | 135° |
| 2026-05-05 20:39 | 31.48899 | -85.48943 | 37055 ft | 552 kts | 135° |
| 2026-05-05 20:39 | 31.43734 | -85.42286 | 37032 ft | 552 kts | 135° |
| 2026-05-05 20:40 | 31.38598 | -85.35671 | 37058 ft | 551 kts | 135° |
| 2026-05-05 20:40 | 31.33433 | -85.29029 | 37048 ft | 551 kts | 135° |
| 2026-05-05 20:41 | 31.28273 | -85.22405 | 37046 ft | 550 kts | 135° |
| 2026-05-05 20:41 | 31.23117 | -85.15798 | 37048 ft | 550 kts | 135° |
| 2026-05-05 20:42 | 31.17957 | -85.09197 | 37038 ft | 550 kts | 135° |
| 2026-05-05 20:42 | 31.12799 | -85.02611 | 37028 ft | 549 kts | 135° |
| 2026-05-05 20:43 | 31.07674 | -84.96078 | 37027 ft | 548 kts | 135° |
| 2026-05-05 20:43 | 31.02516 | -84.89514 | 37031 ft | 548 kts | 135° |
| 2026-05-05 20:44 | 30.97366 | -84.82972 | 37041 ft | 548 kts | 135° |
| 2026-05-05 20:44 | 30.92208 | -84.76431 | 37038 ft | 548 kts | 135° |
| 2026-05-05 20:45 | 30.84474 | -84.66644 | 37025 ft | 548 kts | 135° |
| 2026-05-05 20:45 | 30.79306 | -84.60118 | 37047 ft | 548 kts | 135° |
| 2026-05-05 20:46 | 30.74140 | -84.53607 | 37041 ft | 548 kts | 135° |
| 2026-05-05 20:46 | 30.68965 | -84.47093 | 37038 ft | 548 kts | 135° |
| 2026-05-05 20:47 | 30.63777 | -84.40575 | 37053 ft | 549 kts | 135° |
| 2026-05-05 20:47 | 30.58592 | -84.34072 | 37060 ft | 549 kts | 135° |
| 2026-05-05 20:48 | 30.53405 | -84.27577 | 37077 ft | 549 kts | 135° |
| 2026-05-05 20:48 | 30.48208 | -84.21080 | 37057 ft | 549 kts | 135° |
| 2026-05-05 20:49 | 30.43043 | -84.14632 | 37062 ft | 549 kts | 135° |
| 2026-05-05 20:49 | 30.37738 | -84.08296 | 37056 ft | 546 kts | 143° |
| 2026-05-05 20:50 | 30.34742 | -84.05643 | 37060 ft | 539 kts | 154° |
| 2026-05-05 20:50 | 30.32572 | -84.04163 | 37062 ft | 535 kts | 157° |
| 2026-05-05 20:50 | 30.25000 | -83.99318 | 37019 ft | 535 kts | 157° |
| 2026-05-05 20:51 | 30.18502 | -83.95111 | 37045 ft | 536 kts | 156° |
| 2026-05-05 20:51 | 30.12015 | -83.90836 | 37072 ft | 536 kts | 156° |
| 2026-05-05 20:52 | 30.05521 | -83.86546 | 37053 ft | 537 kts | 156° |
| 2026-05-05 20:52 | 29.99027 | -83.82268 | 37057 ft | 538 kts | 156° |
| 2026-05-05 20:53 | 29.92516 | -83.77990 | 37054 ft | 537 kts | 156° |
| 2026-05-05 20:53 | 29.86064 | -83.73757 | 37050 ft | 538 kts | 156° |
| 2026-05-05 20:54 | 29.79559 | -83.69495 | 37054 ft | 538 kts | 156° |
| 2026-05-05 20:54 | 29.73060 | -83.65226 | 37047 ft | 538 kts | 156° |
| 2026-05-05 20:55 | 29.66568 | -83.60960 | 37014 ft | 538 kts | 156° |
| 2026-05-05 20:55 | 29.60078 | -83.56702 | 37037 ft | 537 kts | 156° |
| 2026-05-05 20:56 | 29.53593 | -83.52457 | 37044 ft | 536 kts | 156° |
| 2026-05-05 20:56 | 29.47111 | -83.48220 | 37039 ft | 536 kts | 156° |
| 2026-05-05 20:57 | 29.40634 | -83.43992 | 37038 ft | 535 kts | 156° |
| 2026-05-05 20:57 | 29.34159 | -83.39770 | 37028 ft | 535 kts | 155° |
| 2026-05-05 20:58 | 29.27584 | -83.35892 | 37029 ft | 525 kts | 167° |
| 2026-05-05 20:58 | 29.20623 | -83.34026 | 37038 ft | 506 kts | 184° |
| 2026-05-05 20:59 | 29.13679 | -83.33886 | 37040 ft | 498 kts | 189° |
| 2026-05-05 20:59 | 29.06721 | -83.33838 | 37012 ft | 501 kts | 188° |
| 2026-05-05 21:00 | 28.99785 | -83.33703 | 37034 ft | 503 kts | 188° |
| 2026-05-05 21:00 | 28.92753 | -83.33086 | 37009 ft | 523 kts | 170° |
| 2026-05-05 21:01 | 28.86990 | -83.30887 | 37044 ft | 527 kts | 168° |
| 2026-05-05 21:01 | 28.80041 | -83.28212 | 37041 ft | 527 kts | 168° |
| 2026-05-05 21:02 | 28.73070 | -83.25641 | 37028 ft | 526 kts | 169° |
| 2026-05-05 21:02 | 28.66103 | -83.23112 | 37027 ft | 525 kts | 169° |
| 2026-05-05 21:03 | 28.59157 | -83.20586 | 37026 ft | 523 kts | 169° |
| 2026-05-05 21:03 | 28.55678 | -83.19320 | 36882 ft | 524 kts | 169° |
| 2026-05-05 21:03 | 28.52244 | -83.18068 | 36223 ft | 525 kts | 168° |
| 2026-05-05 21:04 | 28.48768 | -83.16796 | 35619 ft | 525 kts | 168° |
| 2026-05-05 21:04 | 28.45282 | -83.15519 | 34994 ft | 526 kts | 167° |
| 2026-05-05 21:04 | 28.41798 | -83.14244 | 34314 ft | 527 kts | 167° |
| 2026-05-05 21:04 | 28.38292 | -83.12963 | 33558 ft | 529 kts | 167° |
| 2026-05-05 21:05 | 28.34783 | -83.11681 | 32814 ft | 530 kts | 167° |
| 2026-05-05 21:05 | 28.31267 | -83.10398 | 32085 ft | 531 kts | 167° |
| 2026-05-05 21:05 | 28.27769 | -83.09121 | 31718 ft | 523 kts | 167° |
| 2026-05-05 21:05 | 28.24322 | -83.07861 | 31091 ft | 521 kts | 167° |
| 2026-05-05 21:06 | 28.20853 | -83.06599 | 30370 ft | 522 kts | 167° |
| 2026-05-05 21:06 | 28.17384 | -83.05340 | 29448 ft | 525 kts | 166° |
| 2026-05-05 21:06 | 28.13897 | -83.04073 | 28551 ft | 526 kts | 166° |
| 2026-05-05 21:06 | 28.10413 | -83.02806 | 27656 ft | 527 kts | 166° |
| 2026-05-05 21:07 | 28.06919 | -83.01517 | 26829 ft | 527 kts | 165° |
| 2026-05-05 21:07 | 28.03517 | -83.00087 | 26523 ft | 515 kts | 162° |
| 2026-05-05 21:07 | 28.00270 | -82.98613 | 26128 ft | 508 kts | 161° |
| 2026-05-05 21:07 | 27.96984 | -82.97081 | 25755 ft | 513 kts | 161° |
| 2026-05-05 21:08 | 27.93680 | -82.95540 | 25368 ft | 516 kts | 161° |
| 2026-05-05 21:08 | 27.90365 | -82.94009 | 24984 ft | 511 kts | 162° |
| 2026-05-05 21:08 | 27.87077 | -82.92505 | 24568 ft | 506 kts | 162° |
| 2026-05-05 21:08 | 27.83820 | -82.91030 | 24204 ft | 501 kts | 162° |
| 2026-05-05 21:09 | 27.80593 | -82.89578 | 23818 ft | 498 kts | 162° |
| 2026-05-05 21:09 | 27.77382 | -82.88137 | 23401 ft | 495 kts | 162° |
| 2026-05-05 21:09 | 27.74197 | -82.86710 | 22984 ft | 491 kts | 162° |
| 2026-05-05 21:09 | 27.71026 | -82.85290 | 22595 ft | 487 kts | 162° |
| 2026-05-05 21:10 | 27.67884 | -82.83882 | 22220 ft | 484 kts | 162° |
| 2026-05-05 21:10 | 27.64766 | -82.82486 | 21858 ft | 481 kts | 162° |
| 2026-05-05 21:10 | 27.61663 | -82.81096 | 21499 ft | 479 kts | 162° |
| 2026-05-05 21:10 | 27.58570 | -82.79712 | 21142 ft | 477 kts | 162° |
| 2026-05-05 21:11 | 27.55499 | -82.78338 | 20790 ft | 475 kts | 162° |
| 2026-05-05 21:11 | 27.52427 | -82.76964 | 20438 ft | 473 kts | 161° |
| 2026-05-05 21:11 | 27.49374 | -82.75600 | 20083 ft | 471 kts | 161° |
| 2026-05-05 21:11 | 27.46338 | -82.74244 | 19730 ft | 468 kts | 161° |
| 2026-05-05 21:12 | 27.43314 | -82.72894 | 19368 ft | 466 kts | 161° |
| 2026-05-05 21:12 | 27.40312 | -82.71554 | 19029 ft | 463 kts | 161° |
| 2026-05-05 21:12 | 27.37324 | -82.70222 | 18668 ft | 460 kts | 161° |
| 2026-05-05 21:12 | 27.34357 | -82.68900 | 18320 ft | 457 kts | 161° |
| 2026-05-05 21:13 | 27.31445 | -82.67603 | 17931 ft | 454 kts | 161° |
| 2026-05-05 21:13 | 27.28522 | -82.66301 | 17569 ft | 450 kts | 161° |
| 2026-05-05 21:13 | 27.25680 | -82.64746 | 17185 ft | 449 kts | 149° |
| 2026-05-05 21:13 | 27.23147 | -82.62793 | 16867 ft | 445 kts | 146° |
| 2026-05-05 21:14 | 27.20651 | -82.60749 | 16530 ft | 443 kts | 145° |
| 2026-05-05 21:14 | 27.18156 | -82.58709 | 16203 ft | 444 kts | 146° |
| 2026-05-05 21:14 | 27.15651 | -82.56699 | 15864 ft | 441 kts | 146° |
| 2026-05-05 21:14 | 27.13145 | -82.54723 | 15529 ft | 438 kts | 147° |
| 2026-05-05 21:15 | 27.10657 | -82.52785 | 15204 ft | 435 kts | 147° |
| 2026-05-05 21:15 | 27.08173 | -82.50859 | 14877 ft | 433 kts | 147° |
| 2026-05-05 21:15 | 27.05701 | -82.48944 | 14554 ft | 431 kts | 147° |
| 2026-05-05 21:15 | 27.03244 | -82.47040 | 14230 ft | 429 kts | 147° |
| 2026-05-05 21:16 | 27.00796 | -82.45126 | 13896 ft | 427 kts | 146° |
| 2026-05-05 21:16 | 26.98381 | -82.43205 | 13554 ft | 425 kts | 146° |
| 2026-05-05 21:16 | 26.95979 | -82.41286 | 13200 ft | 422 kts | 146° |
| 2026-05-05 21:16 | 26.93591 | -82.39383 | 12874 ft | 419 kts | 146° |
| 2026-05-05 21:17 | 26.91255 | -82.37527 | 12555 ft | 416 kts | 146° |
| 2026-05-05 21:17 | 26.88877 | -82.35642 | 12229 ft | 412 kts | 146° |
| 2026-05-05 21:17 | 26.86572 | -82.33816 | 11927 ft | 409 kts | 146° |
| 2026-05-05 21:17 | 26.84231 | -82.31962 | 11608 ft | 404 kts | 146° |
| 2026-05-05 21:18 | 26.81971 | -82.30172 | 11302 ft | 393 kts | 147° |
| 2026-05-05 21:18 | 26.79790 | -82.28446 | 11011 ft | 383 kts | 147° |
| 2026-05-05 21:18 | 26.77644 | -82.26748 | 10773 ft | 373 kts | 147° |
| 2026-05-05 21:18 | 26.75561 | -82.25101 | 10576 ft | 362 kts | 147° |
| 2026-05-05 21:19 | 26.73517 | -82.23485 | 10236 ft | 357 kts | 147° |
| 2026-05-05 21:19 | 26.71519 | -82.21907 | 10061 ft | 347 kts | 147° |
| 2026-05-05 21:19 | 26.69595 | -82.20387 | 9958 ft | 327 kts | 147° |
| 2026-05-05 21:19 | 26.67800 | -82.18967 | 9888 ft | 308 kts | 147° |
| 2026-05-05 21:20 | 26.66059 | -82.17595 | 9521 ft | 303 kts | 147° |
| 2026-05-05 21:20 | 26.64346 | -82.16246 | 9273 ft | 300 kts | 147° |
| 2026-05-05 21:20 | 26.62637 | -82.14901 | 9090 ft | 299 kts | 146° |
| 2026-05-05 21:20 | 26.60932 | -82.13559 | 8897 ft | 299 kts | 146° |
| 2026-05-05 21:21 | 26.59507 | -82.12437 | 8736 ft | 299 kts | 146° |
| 2026-05-05 21:21 | 26.57810 | -82.11101 | 8549 ft | 299 kts | 146° |
| 2026-05-05 21:21 | 26.56113 | -82.09765 | 8370 ft | 299 kts | 146° |
| 2026-05-05 21:21 | 26.54415 | -82.08429 | 8178 ft | 299 kts | 146° |
| 2026-05-05 21:22 | 26.52718 | -82.07093 | 7981 ft | 298 kts | 146° |
| 2026-05-05 21:22 | 26.51025 | -82.05761 | 7794 ft | 297 kts | 146° |
| 2026-05-05 21:22 | 26.49336 | -82.04433 | 7605 ft | 296 kts | 145° |
| 2026-05-05 21:22 | 26.47676 | -82.03127 | 7432 ft | 295 kts | 145° |
| 2026-05-05 21:23 | 26.46003 | -82.01813 | 7241 ft | 294 kts | 146° |
| 2026-05-05 21:23 | 26.44344 | -82.00495 | 7072 ft | 292 kts | 141° |
| 2026-05-05 21:23 | 26.43012 | -81.98806 | 6844 ft | 292 kts | 123° |
| 2026-05-05 21:23 | 26.41966 | -81.96887 | 6753 ft | 286 kts | 121° |
| 2026-05-05 21:24 | 26.40849 | -81.95040 | 6495 ft | 288 kts | 125° |
| 2026-05-05 21:24 | 26.39694 | -81.93242 | 6342 ft | 284 kts | 121° |
| 2026-05-05 21:24 | 26.39069 | -81.91189 | 6111 ft | 280 kts | 90° |
| 2026-05-05 21:24 | 26.39245 | -81.89057 | 5970 ft | 274 kts | 81° |
| 2026-05-05 21:25 | 26.39545 | -81.86962 | 5758 ft | 274 kts | 80° |
| 2026-05-05 21:25 | 26.39841 | -81.84886 | 5602 ft | 270 kts | 81° |
| 2026-05-05 21:25 | 26.40119 | -81.82825 | 5444 ft | 267 kts | 81° |
| 2026-05-05 21:25 | 26.40390 | -81.80784 | 5259 ft | 265 kts | 81° |
| 2026-05-05 21:26 | 26.41040 | -81.78897 | 5088 ft | 262 kts | 57° |
| 2026-05-05 21:26 | 26.42139 | -81.77280 | 4904 ft | 263 kts | 53° |
| 2026-05-05 21:26 | 26.43216 | -81.75669 | 4809 ft | 255 kts | 54° |
| 2026-05-05 21:26 | 26.44246 | -81.74087 | 4655 ft | 250 kts | 55° |
| 2026-05-05 21:27 | 26.45240 | -81.72543 | 4474 ft | 247 kts | 55° |
| 2026-05-05 21:27 | 26.46230 | -81.71004 | 4321 ft | 242 kts | 55° |
| 2026-05-05 21:27 | 26.47207 | -81.69485 | 4146 ft | 238 kts | 55° |
| 2026-05-05 21:27 | 26.48162 | -81.68004 | 4007 ft | 233 kts | 56° |
| 2026-05-05 21:28 | 26.49114 | -81.66548 | 3739 ft | 229 kts | 55° |
| 2026-05-05 21:28 | 26.50044 | -81.65133 | 3522 ft | 224 kts | 54° |
| 2026-05-05 21:28 | 26.50966 | -81.63729 | 3298 ft | 224 kts | 54° |
| 2026-05-05 21:28 | 26.51883 | -81.62328 | 3059 ft | 224 kts | 54° |
| 2026-05-05 21:29 | 26.52870 | -81.60997 | 2886 ft | 221 kts | 43° |
| 2026-05-05 21:29 | 26.54154 | -81.60079 | 2702 ft | 219 kts | 21° |
| 2026-05-05 21:29 | 26.55631 | -81.59765 | 2519 ft | 217 kts | 359° |
| 2026-05-05 21:29 | 26.57084 | -81.60107 | 2388 ft | 211 kts | 337° |
| 2026-05-05 21:30 | 26.58299 | -81.60962 | 2232 ft | 205 kts | 319° |
| 2026-05-05 21:30 | 26.59189 | -81.62176 | 2056 ft | 199 kts | 300° |
| 2026-05-05 21:30 | 26.59675 | -81.63589 | 1917 ft | 192 kts | 281° |
| 2026-05-05 21:30 | 26.59727 | -81.65044 | 1773 ft | 184 kts | 263° |
| 2026-05-05 21:31 | 26.59440 | -81.66370 | 1636 ft | 166 kts | 245° |
| 2026-05-05 21:31 | 26.58888 | -81.67419 | 1465 ft | 150 kts | 235° |
| 2026-05-05 21:31 | 26.58283 | -81.68346 | 1315 ft | 146 kts | 234° |
| 2026-05-05 21:31 | 26.57681 | -81.69270 | 1119 ft | 148 kts | 235° |
| 2026-05-05 21:32 | 26.57074 | -81.70202 | 927 ft | 152 kts | 234° |
| 2026-05-05 21:32 | 26.56451 | -81.71166 | 728 ft | 152 kts | 236° |
| 2026-05-05 21:32 | 26.55845 | -81.72106 | 521 ft | 150 kts | 235° |
| 2026-05-05 21:32 | 26.55230 | -81.73050 | 304 ft | 150 kts | 234° |
| 2026-05-05 21:33 | 26.54632 | -81.73968 | 96 ft | 143 kts | 234° |
| 2026-05-05 21:33 | 26.54085 | -81.74803 | 43 ft | 112 kts | 234° |
| 2026-05-05 21:33 | 26.53754 | -81.75303 | 37 ft | 45 kts | 232° |
| 2026-05-05 21:33 | 26.53577 | -81.75579 | 37 ft | 42 kts | 235° |
| 2026-05-05 21:34 | 26.53402 | -81.75744 | 39 ft | 15 kts | 172° |
| 2026-05-05 21:34 | 26.53391 | -81.75660 | 40 ft | 14 kts | 58° |
| 2026-05-05 21:34 | 26.53456 | -81.75551 | 40 ft | 18 kts | 64° |
| 2026-05-05 21:34 | 26.53402 | -81.75442 | 40 ft | 17 kts | 141° |
| 2026-05-05 21:35 | 26.53304 | -81.75366 | 42 ft | 17 kts | 145° |
| 2026-05-05 21:35 | 26.53200 | -81.75327 | 43 ft | 16 kts | 187° |
| 2026-05-05 21:35 | 26.53090 | -81.75346 | 42 ft | 16 kts | 190° |
| 2026-05-05 21:35 | 26.52994 | -81.75365 | 42 ft | 11 kts | 185° |
| 2026-05-05 21:36 | 26.52947 | -81.75407 | 42 ft | 8 kts | 269° |
| 2026-05-05 21:36 | 26.52950 | -81.75442 | 43 ft | 3 kts | 277° |
| 2026-05-05 21:36 | 26.52951 | -81.75447 | 43 ft | 0 kts | 278° |